createdAt,value
2019-02-22T00:02:51.799Z,9.1
2019-02-22T00:12:51.008Z,8.9
2019-02-22T00:22:50.207Z,8.9
2019-02-22T00:32:49.410Z,8.9
2019-02-22T00:42:50.297Z,8.8
2019-02-22T00:52:47.818Z,8.8
2019-02-22T01:02:47.022Z,8.8
2019-02-22T01:12:46.226Z,8.8
2019-02-22T01:22:45.429Z,8.7
2019-02-22T01:32:44.633Z,8.7
2019-02-22T01:42:43.835Z,8.9
2019-02-22T01:52:43.041Z,9.1
2019-02-22T02:02:42.245Z,9.3
2019-02-22T02:12:41.456Z,9.4
2019-02-22T02:22:40.652Z,9.5
2019-02-22T02:32:39.856Z,9.5
2019-02-22T02:42:39.056Z,9.5
2019-02-22T02:52:38.263Z,9.4
2019-02-22T03:02:37.463Z,9.4
2019-02-22T03:12:36.669Z,9.4
2019-02-22T03:22:35.869Z,9.4
2019-02-22T03:32:35.074Z,9.6
2019-02-22T03:42:34.325Z,9.6
2019-02-22T03:52:33.479Z,9.6
2019-02-22T04:02:32.688Z,9.6
2019-02-22T04:12:31.884Z,9.7
2019-02-22T04:22:31.088Z,9.8
2019-02-22T04:34:37.634Z,9.8
2019-02-22T04:44:36.890Z,9.6
2019-02-22T04:54:36.047Z,9
2019-02-22T05:04:35.251Z,8.4
2019-02-22T05:14:34.457Z,5.9
2019-02-22T05:29:23.078Z,4.6
2019-02-22T05:39:22.287Z,4.8
2019-02-22T05:49:22.469Z,4.7
2019-02-22T05:59:20.693Z,4.6
2019-02-22T06:14:40.570Z,4.8
2019-02-22T06:24:39.774Z,5
2019-02-22T06:34:38.977Z,5
2019-02-22T06:44:38.178Z,5.4
2019-02-22T06:54:37.382Z,5.8
2019-02-22T07:04:36.683Z,5.9
2019-02-22T07:14:35.873Z,5.8
2019-02-22T07:24:35.114Z,6.2
2019-02-22T07:34:34.502Z,6.8
2019-02-22T07:44:33.682Z,7.1
2019-02-22T07:54:32.968Z,7.4
2019-02-22T08:04:32.255Z,7.6
2019-02-22T08:14:31.464Z,7.7
2019-02-22T08:24:30.660Z,7.9
2019-02-22T08:34:29.861Z,7.9
2019-02-22T08:44:29.062Z,8.1
2019-02-22T08:54:28.263Z,8.1
2019-02-22T09:04:27.468Z,8.3
2019-02-22T09:14:26.751Z,8.6
2019-02-22T09:24:25.869Z,8.7
2019-02-22T09:34:26.117Z,9
2019-02-22T09:44:25.312Z,8.8
2019-02-22T09:54:24.515Z,8.8
2019-02-22T10:04:23.721Z,8.7
2019-02-22T10:14:22.925Z,8.4
2019-02-22T10:24:22.127Z,8.3
2019-02-22T10:34:21.337Z,8.1
2019-02-22T10:44:20.534Z,7.9
2019-02-22T10:54:19.739Z,8
2019-02-22T11:04:18.999Z,8.1
2019-02-22T11:14:28.376Z,8.1
2019-02-22T11:24:19.788Z,7.9
2019-02-22T11:34:16.556Z,8.1
2019-02-22T11:44:15.810Z,8.2
2019-02-22T11:54:14.964Z,8.1
2019-02-22T12:04:14.167Z,8.2
2019-02-22T12:14:13.373Z,8.3
2019-02-22T12:24:12.576Z,8.2
2019-02-22T12:34:11.781Z,8.3
2019-02-22T12:44:10.986Z,8.2
2019-02-22T12:54:10.191Z,8
2019-02-22T13:04:09.400Z,8
2019-02-22T13:14:08.606Z,7.9
2019-02-22T13:24:07.812Z,7.9
2019-02-22T13:34:07.029Z,7.9
2019-02-22T13:44:06.222Z,7.8
2019-02-22T13:54:05.428Z,7.8
2019-02-22T14:04:04.634Z,7.5
2019-02-22T14:14:03.880Z,7.5
2019-02-22T14:24:03.054Z,7.6
2019-02-22T14:34:02.249Z,7.4
2019-02-22T14:44:01.454Z,7.4
2019-02-22T14:54:00.662Z,7.3
2019-02-22T15:03:59.934Z,7.1
2019-02-22T15:13:59.067Z,6.9
2019-02-22T15:23:58.274Z,6.8
2019-02-22T15:33:57.529Z,6.8
2019-02-22T15:43:56.684Z,6.7
2019-02-22T15:53:55.890Z,6.7
2019-02-22T16:03:55.093Z,6.6
2019-02-22T16:13:54.299Z,6.7
2019-02-22T16:23:53.500Z,6.4
2019-02-22T16:33:52.706Z,6.4
2019-02-22T16:43:51.916Z,7.4
2019-02-22T16:53:51.169Z,7.8
2019-02-22T17:03:50.329Z,8.3
2019-02-22T17:13:49.542Z,8.6
2019-02-22T17:23:48.756Z,8.7
2019-02-22T17:33:47.963Z,8.8
2019-02-22T17:43:47.170Z,8.8
2019-02-22T17:53:46.381Z,8.8
2019-02-22T18:03:45.591Z,8.8
2019-02-22T18:13:44.801Z,8.9
2019-02-22T18:23:44.067Z,9
2019-02-22T18:33:43.224Z,9.1
2019-02-22T18:43:42.436Z,9.2
2019-02-22T18:53:41.644Z,9.3
2019-02-22T19:03:40.859Z,9.3
2019-02-22T19:13:40.072Z,9.3
2019-02-22T19:23:39.284Z,9.4
2019-02-22T19:33:38.521Z,9.4
2019-02-22T19:43:37.707Z,9.4
2019-02-22T19:54:59.560Z,9.5
2019-02-22T20:04:58.769Z,9.3
2019-02-22T20:14:57.991Z,9.2
2019-02-22T20:24:57.189Z,9.1
2019-02-22T20:34:56.399Z,9.1
2019-02-22T20:44:55.611Z,9.1
2019-02-22T20:58:32.787Z,9.1
2019-02-22T21:08:32.045Z,9.1
2019-02-22T21:18:31.201Z,9.2
2019-02-22T21:28:30.407Z,9.2
2019-02-22T21:38:29.613Z,9.1
2019-02-22T21:48:28.820Z,9.1
2019-02-22T21:58:28.064Z,9.1
2019-02-22T22:08:27.354Z,9.1
2019-02-22T22:18:26.644Z,9.1
2019-02-22T22:28:25.931Z,9
2019-02-22T22:38:25.220Z,9.1
2019-02-22T22:48:24.509Z,9
2019-02-22T22:58:23.715Z,8.6
2019-02-22T23:08:22.921Z,8.1
2019-02-22T23:18:22.126Z,7.4
2019-02-22T23:28:21.330Z,6.9
2019-02-22T23:38:20.536Z,6.4
2019-02-22T23:48:19.741Z,6.3
2019-02-22T23:58:18.951Z,6.1
